Terminal Aerodrome Forecast
Issued by NWS

Home | Current Version | Previous Version | Graphics & Text | Print | Product List | Glossary On
Versions: 1 2 3 4 5 6 7 8 9 10 11 12 13 14 15 16 17 18 19 20 21
000
FTUS43 KGRB 271700
TAFAUW
TAF
KAUW 271722Z 2718/2818 VRB03KT 5SM BR OVC008
     FM271900 VRB03KT 6SM BR OVC011
     FM272200 VRB03KT P6SM OVC020
     FM280300 17003KT 5SM BR BKN012 BKN120
     FM280900 18004KT 4SM BR BKN009 OVC100
     FM281600 17008KT P6SM SCT012 BKN120=

USA.gov is the U.S. government's official web portal to all federal, state and local government web resources and services.